Time;durP1;ratioP1;P1;durP2;ratioP2;P2;SDS_P1;SDS_P2;PMS_P1;PMS_P2;Temp;Humidity;BMP_temperature;BMP_pressure;BME280_temperature;BME280_humidity;BME280_pressure;Samples;Min_cycle;Max_cycle;Signal;HPM_P1;HPM_P2
2023/09/28 00:00:45;;;;;;;20.85;15.00;;;16.10;99.90;;;;;;4971960;28;20191;-86
2023/09/28 00:03:13;;;;;;;25.52;14.63;;;16.10;99.90;;;;;;4958968;28;20273;-86
2023/09/28 00:05:41;;;;;;;22.35;14.38;;;16.00;99.90;;;;;;4980743;28;20188;-86
2023/09/28 00:08:09;;;;;;;19.50;14.23;;;16.00;99.90;;;;;;4981372;28;20246;-86
2023/09/28 00:10:36;;;;;;;20.13;15.00;;;16.00;99.90;;;;;;4975193;28;20196;-86
2023/09/28 00:13:04;;;;;;;19.70;14.40;;;16.00;99.90;;;;;;4983562;28;20191;-86
2023/09/28 00:15:32;;;;;;;15.57;13.00;;;15.80;99.90;;;;;;4961764;28;20282;-87
2023/09/28 00:18:00;;;;;;;18.50;13.77;;;15.90;99.90;;;;;;4981164;28;20207;-86
2023/09/28 00:20:28;;;;;;;20.10;14.48;;;15.90;99.90;;;;;;4972832;28;20698;-86
2023/09/28 00:22:56;;;;;;;23.83;13.77;;;15.90;99.90;;;;;;4961337;28;20203;-85
2023/09/28 00:25:24;;;;;;;23.30;14.80;;;15.90;99.90;;;;;;4978622;28;20238;-86
2023/09/28 00:27:53;;;;;;;18.42;14.85;;;15.90;99.90;;;;;;4979474;28;20651;-84
2023/09/28 00:30:22;;;;;;;18.98;13.68;;;15.90;99.90;;;;;;4979282;28;20666;-84
2023/09/28 00:32:55;;;;;;;15.38;12.02;;;15.90;99.90;;;;;;4965195;28;20271;-86
2023/09/28 00:35:24;;;;;;;16.48;12.02;;;15.90;99.90;;;;;;4981974;28;20226;-87
2023/09/28 00:37:51;;;;;;;15.38;11.23;;;15.90;99.90;;;;;;4961498;28;20211;-86
2023/09/28 00:40:31;;;;;;;15.88;10.73;;;15.90;99.90;;;;;;4964159;28;20191;-85
2023/09/28 00:43:00;;;;;;;15.40;10.88;;;15.90;99.90;;;;;;4971708;28;20274;-86
2023/09/28 00:45:28;;;;;;;14.07;11.13;;;15.90;99.90;;;;;;4962438;28;20196;-87
2023/09/28 00:48:02;;;;;;;21.77;12.38;;;15.90;99.90;;;;;;4963577;28;20223;-87
2023/09/28 00:50:34;;;;;;;16.80;11.82;;;15.80;99.90;;;;;;4971901;28;20203;-85
2023/09/28 00:53:10;;;;;;;14.52;9.82;;;15.80;99.90;;;;;;4958464;28;20191;-87
2023/09/28 00:55:39;;;;;;;15.57;10.68;;;15.80;99.90;;;;;;4981422;28;20223;-85
2023/09/28 00:58:10;;;;;;;15.45;11.38;;;15.80;99.90;;;;;;4985006;28;20210;-86
2023/09/28 01:00:40;;;;;;;12.73;9.13;;;15.70;99.90;;;;;;4988201;28;20188;-88
2023/09/28 01:03:09;;;;;;;12.77;9.65;;;15.70;99.90;;;;;;4970107;28;20195;-87
2023/09/28 01:05:40;;;;;;;16.88;9.98;;;15.70;99.90;;;;;;4979163;28;20198;-86
2023/09/28 01:08:22;;;;;;;17.13;10.35;;;15.70;99.90;;;;;;4956840;28;20184;-86
2023/09/28 01:10:49;;;;;;;14.80;9.55;;;15.70;99.90;;;;;;4984232;28;20273;-85
2023/09/28 01:13:20;;;;;;;13.27;8.98;;;15.60;99.90;;;;;;4965250;28;20221;-86
2023/09/28 01:15:49;;;;;;;14.98;9.93;;;15.60;99.90;;;;;;4975199;28;20196;-88
2023/09/28 01:18:22;;;;;;;16.77;10.90;;;15.70;99.90;;;;;;4972407;28;20215;-86
2023/09/28 01:20:54;;;;;;;14.82;10.75;;;15.60;99.90;;;;;;4956150;28;20699;-87
2023/09/28 01:23:23;;;;;;;20.55;11.45;;;15.60;99.90;;;;;;4969586;28;20678;-87
2023/09/28 01:25:52;;;;;;;17.88;10.18;;;15.60;99.90;;;;;;4968195;28;20210;-86
2023/09/28 01:28:21;;;;;;;12.45;9.55;;;15.60;99.90;;;;;;4967236;28;20282;-86
2023/09/28 01:30:49;;;;;;;15.93;10.82;;;15.50;99.90;;;;;;4981086;28;20206;-86
2023/09/28 01:33:17;;;;;;;11.52;9.00;;;15.40;99.90;;;;;;4974939;28;20675;-84
2023/09/28 01:35:46;;;;;;;12.05;9.30;;;15.50;99.90;;;;;;4982401;28;21078;-87
2023/09/28 01:38:18;;;;;;;16.20;10.90;;;15.40;99.90;;;;;;4958067;28;20212;-86
2023/09/28 01:40:47;;;;;;;13.45;9.57;;;15.40;99.90;;;;;;4981942;28;20242;-85
2023/09/28 01:43:17;;;;;;;11.35;9.43;;;15.30;99.90;;;;;;4990396;28;20266;-86
2023/09/28 01:45:45;;;;;;;14.10;10.55;;;15.30;99.90;;;;;;4981818;28;20270;-86
2023/09/28 01:48:14;;;;;;;15.73;11.50;;;15.40;99.90;;;;;;4966266;28;20195;-85
2023/09/28 01:50:41;;;;;;;17.45;12.30;;;15.40;99.90;;;;;;4973548;28;20196;-86
2023/09/28 01:53:09;;;;;;;20.23;13.15;;;15.40;99.90;;;;;;4984421;28;20191;-87
2023/09/28 01:55:37;;;;;;;13.73;10.80;;;15.50;99.90;;;;;;4980326;28;20199;-86
2023/09/28 01:58:07;;;;;;;14.02;11.18;;;15.40;99.90;;;;;;4964510;28;20209;-85
2023/09/28 02:00:36;;;;;;;14.82;10.93;;;15.50;99.90;;;;;;4964550;28;20282;-86
2023/09/28 02:03:05;;;;;;;15.98;12.52;;;15.50;99.90;;;;;;4980383;28;20230;-86
2023/09/28 02:05:34;;;;;;;14.07;10.70;;;15.50;99.90;;;;;;4986443;28;20206;-84
2023/09/28 02:08:03;;;;;;;14.93;11.02;;;15.50;99.90;;;;;;4983414;28;20192;-87
2023/09/28 02:10:30;;;;;;;14.02;11.85;;;15.40;99.90;;;;;;4986933;28;20277;-86
2023/09/28 02:12:59;;;;;;;11.68;10.32;;;15.40;99.90;;;;;;4984568;28;20654;-85
2023/09/28 02:15:27;;;;;;;10.75;9.07;;;15.40;99.90;;;;;;4955800;28;20212;-87
2023/09/28 02:17:54;;;;;;;15.65;10.65;;;15.40;99.90;;;;;;4987149;28;20207;-85
2023/09/28 02:20:23;;;;;;;14.25;10.68;;;15.40;99.90;;;;;;4984756;28;20223;-86
2023/09/28 02:22:54;;;;;;;13.07;10.10;;;15.40;99.90;;;;;;4983128;28;20198;-85
2023/09/28 02:25:26;;;;;;;17.50;8.88;;;15.30;99.90;;;;;;4963103;28;20193;-87
2023/09/28 02:27:54;;;;;;;9.07;7.85;;;15.20;99.90;;;;;;4956390;28;20199;-85
2023/09/28 02:30:22;;;;;;;8.23;7.28;;;15.20;99.90;;;;;;4963929;28;20203;-85
2023/09/28 02:32:55;;;;;;;8.95;8.00;;;15.30;99.90;;;;;;4965657;28;20246;-85
2023/09/28 02:35:24;;;;;;;7.00;6.03;;;15.40;99.90;;;;;;4966609;28;20202;-86
2023/09/28 02:37:53;;;;;;;21.30;7.70;;;15.40;99.90;;;;;;4982931;28;20210;-87
2023/09/28 02:40:22;;;;;;;11.30;8.85;;;15.30;99.90;;;;;;4965926;28;20203;-86
2023/09/28 02:42:52;;;;;;;14.95;9.82;;;15.20;99.90;;;;;;4983081;28;20661;-84
2023/09/28 02:45:19;;;;;;;18.45;11.23;;;15.20;99.90;;;;;;4965186;28;20195;-86
2023/09/28 02:47:48;;;;;;;13.95;9.18;;;15.30;99.90;;;;;;4956393;28;20201;-87
2023/09/28 02:50:16;;;;;;;11.30;8.75;;;15.30;99.90;;;;;;4961810;28;20282;-84
2023/09/28 02:52:49;;;;;;;13.50;9.95;;;15.40;99.90;;;;;;4985369;28;20187;-87
2023/09/28 02:55:17;;;;;;;17.63;12.13;;;15.40;99.90;;;;;;4972716;28;20196;-86
2023/09/28 02:57:49;;;;;;;12.35;9.95;;;15.30;99.90;;;;;;4980915;28;20199;-86
2023/09/28 03:02:53;;;;;;;10.65;7.93;;;15.30;99.90;;;;;;4962722;28;20297;-83
2023/09/28 03:05:20;;;;;;;12.10;8.82;;;15.40;99.90;;;;;;4979337;28;20678;-87
2023/09/28 03:07:49;;;;;;;16.73;11.52;;;15.30;99.90;;;;;;4965867;28;20423;-87
2023/09/28 03:10:18;;;;;;;13.05;9.98;;;15.30;99.90;;;;;;4963540;28;20239;-84
2023/09/28 03:12:46;;;;;;;15.32;11.75;;;15.30;99.90;;;;;;4958458;28;20188;-85
2023/09/28 03:15:16;;;;;;;13.38;8.85;;;15.30;99.90;;;;;;4964760;28;20672;-85
2023/09/28 03:17:46;;;;;;;12.27;9.95;;;15.40;99.90;;;;;;4966823;28;20242;-86
2023/09/28 03:20:18;;;;;;;12.18;8.50;;;15.20;99.90;;;;;;4960778;28;20236;-86
2023/09/28 03:22:49;;;;;;;11.15;7.63;;;15.30;99.90;;;;;;4981852;28;20277;-86
2023/09/28 03:25:21;;;;;;;9.43;8.10;;;15.20;99.90;;;;;;4978552;28;20188;-85
2023/09/28 03:27:54;;;;;;;13.05;8.93;;;15.20;99.90;;;;;;4961727;28;20202;-87
2023/09/28 03:30:23;;;;;;;12.55;9.00;;;15.20;99.90;;;;;;4953665;28;20324;-87
2023/09/28 03:32:51;;;;;;;12.80;9.73;;;15.10;99.90;;;;;;4956630;28;20202;-86
2023/09/28 03:35:20;;;;;;;11.80;9.13;;;15.10;99.90;;;;;;4971475;28;20730;-85
2023/09/28 03:37:48;;;;;;;10.80;8.88;;;15.10;99.90;;;;;;4979699;28;20255;-85
2023/09/28 03:40:16;;;;;;;10.07;8.88;;;15.10;99.90;;;;;;4982513;28;20184;-87
2023/09/28 03:42:50;;;;;;;12.18;9.25;;;15.10;99.90;;;;;;4965201;28;20187;-85
2023/09/28 03:45:21;;;;;;;11.27;8.40;;;15.10;99.90;;;;;;4959091;28;20551;-85
2023/09/28 03:47:51;;;;;;;11.75;8.20;;;15.10;99.90;;;;;;4969641;28;20188;-86
2023/09/28 03:50:23;;;;;;;9.18;7.65;;;15.10;99.90;;;;;;4970918;28;20202;-86
2023/09/28 03:52:51;;;;;;;9.98;8.07;;;15.10;99.90;;;;;;4981304;28;20196;-86
2023/09/28 03:55:23;;;;;;;11.63;9.77;;;15.10;99.90;;;;;;4975511;28;20192;-86
2023/09/28 03:57:51;;;;;;;12.32;9.18;;;14.90;99.90;;;;;;4966213;28;20271;-85
2023/09/28 04:00:20;;;;;;;13.70;9.32;;;14.80;99.90;;;;;;4961095;28;20199;-85
2023/09/28 04:02:50;;;;;;;10.10;7.35;;;14.80;99.90;;;;;;4978935;28;20271;-84
2023/09/28 04:05:21;;;;;;;8.95;7.53;;;14.80;99.90;;;;;;4980885;28;20275;-87
2023/09/28 04:07:50;;;;;;;11.20;9.40;;;14.90;99.90;;;;;;4964818;28;20187;-85
2023/09/28 04:10:19;;;;;;;11.30;9.52;;;14.90;99.90;;;;;;4979428;28;20180;-86
2023/09/28 04:12:54;;;;;;;15.18;10.23;;;14.90;99.90;;;;;;4962976;28;20214;-87
2023/09/28 04:15:25;;;;;;;16.13;9.98;;;14.90;99.90;;;;;;4960190;28;20274;-84
2023/09/28 04:17:53;;;;;;;13.35;9.85;;;14.90;99.90;;;;;;4963518;28;20246;-85
2023/09/28 04:20:20;;;;;;;8.82;7.63;;;14.90;99.90;;;;;;4980546;28;20281;-86
2023/09/28 04:22:49;;;;;;;10.93;8.82;;;14.90;99.90;;;;;;4971933;28;20278;-86
2023/09/28 04:25:19;;;;;;;12.05;9.35;;;14.90;99.90;;;;;;4968268;28;20196;-87
2023/09/28 04:27:49;;;;;;;8.85;7.63;;;14.70;99.90;;;;;;4973733;28;20267;-87
2023/09/28 04:30:18;;;;;;;11.23;7.70;;;14.70;99.90;;;;;;4969229;28;20183;-86
2023/09/28 04:32:50;;;;;;;10.50;7.47;;;14.70;99.90;;;;;;4975025;28;20203;-86
2023/09/28 04:35:18;;;;;;;7.68;6.60;;;14.60;99.90;;;;;;4984911;28;20558;-85
2023/09/28 04:37:49;;;;;;;10.73;6.80;;;14.70;99.90;;;;;;4966033;28;20203;-87
2023/09/28 04:40:23;;;;;;;8.57;6.95;;;14.80;99.90;;;;;;4980065;28;20199;-86
2023/09/28 04:42:53;;;;;;;10.57;7.32;;;14.80;99.90;;;;;;4987171;28;20182;-87
2023/09/28 04:45:20;;;;;;;10.55;7.70;;;14.90;99.90;;;;;;4969111;28;20192;-86
2023/09/28 04:47:48;;;;;;;11.50;8.93;;;14.90;99.90;;;;;;4961692;28;20658;-87
2023/09/28 04:50:16;;;;;;;10.95;7.88;;;14.80;99.90;;;;;;4965639;28;20200;-85
2023/09/28 04:52:44;;;;;;;13.75;9.18;;;14.60;99.90;;;;;;4984359;28;20609;-86
2023/09/28 04:55:12;;;;;;;10.05;8.48;;;14.50;99.90;;;;;;4979617;28;20192;-86
2023/09/28 04:57:40;;;;;;;16.88;10.32;;;14.60;99.90;;;;;;4984493;28;20238;-86
2023/09/28 05:00:10;;;;;;;13.52;10.32;;;14.70;99.90;;;;;;4985052;28;20211;-86
2023/09/28 05:02:38;;;;;;;11.27;8.73;;;14.60;99.90;;;;;;4985358;28;20191;-87
2023/09/28 05:05:08;;;;;;;13.07;9.77;;;14.60;99.90;;;;;;4985197;28;20270;-83
2023/09/28 05:07:36;;;;;;;12.85;10.15;;;14.60;99.90;;;;;;4982718;28;20188;-85
2023/09/28 05:10:05;;;;;;;10.57;8.82;;;14.70;99.90;;;;;;4980430;28;20196;-87
2023/09/28 05:12:33;;;;;;;10.68;8.82;;;14.70;99.90;;;;;;4960850;28;20274;-86
2023/09/28 05:15:02;;;;;;;12.10;10.25;;;14.70;99.90;;;;;;4983231;28;20192;-85
2023/09/28 05:17:29;;;;;;;11.20;9.45;;;14.70;99.90;;;;;;4980813;28;20654;-86
2023/09/28 05:19:57;;;;;;;12.73;10.35;;;14.60;99.90;;;;;;4952340;28;20248;-87
2023/09/28 05:22:26;;;;;;;11.60;9.57;;;14.60;99.90;;;;;;4964952;28;20191;-86
2023/09/28 05:24:53;;;;;;;12.80;10.45;;;14.60;99.90;;;;;;4980155;28;20212;-86
2023/09/28 05:27:21;;;;;;;13.35;11.25;;;14.50;99.90;;;;;;4982496;28;20651;-80
2023/09/28 05:29:49;;;;;;;11.75;10.18;;;14.50;99.90;;;;;;5275742;23;20195;-85
2023/09/28 05:32:17;;;;;;;9.38;8.38;;;14.50;99.90;;;;;;4937734;28;20295;-84
2023/09/28 05:34:44;;;;;;;11.75;10.00;;;14.50;99.90;;;;;;4952928;28;20251;-83
2023/09/28 05:37:12;;;;;;;10.50;8.90;;;14.50;99.90;;;;;;4972139;28;20191;-84
2023/09/28 05:39:39;;;;;;;12.65;9.18;;;14.50;99.90;;;;;;4952294;28;20208;-83
2023/09/28 05:42:07;;;;;;;12.40;8.63;;;14.40;99.90;;;;;;4972515;28;20198;-84
2023/09/28 05:44:35;;;;;;;12.63;10.00;;;14.30;99.90;;;;;;4972659;28;20267;-83
2023/09/28 05:47:02;;;;;;;12.02;9.40;;;14.40;99.90;;;;;;4963090;28;20199;-84
2023/09/28 05:49:30;;;;;;;13.57;10.20;;;14.50;99.90;;;;;;4954804;28;20200;-84
2023/09/28 05:52:01;;;;;;;14.25;10.55;;;14.50;99.90;;;;;;4971373;28;20192;-82
2023/09/28 05:54:28;;;;;;;15.90;11.25;;;14.60;99.90;;;;;;4970806;28;20262;-83
2023/09/28 05:56:56;;;;;;;15.10;11.50;;;14.50;99.90;;;;;;4970994;28;20204;-85
2023/09/28 05:59:24;;;;;;;17.88;11.88;;;14.50;99.90;;;;;;4969571;28;20674;-82
2023/09/28 06:01:51;;;;;;;16.75;11.25;;;14.50;99.90;;;;;;4954558;28;20979;-85
2023/09/28 06:04:19;;;;;;;18.23;12.45;;;14.50;99.90;;;;;;4939112;28;20250;-84
2023/09/28 06:06:50;;;;;;;16.23;11.35;;;14.50;99.90;;;;;;4972357;28;20188;-84
2023/09/28 06:09:21;;;;;;;39.13;14.77;;;14.60;99.90;;;;;;4954664;28;20256;-83
2023/09/28 06:11:48;;;;;;;18.67;13.10;;;14.40;99.90;;;;;;4971831;28;20203;-84
2023/09/28 06:14:16;;;;;;;26.40;13.65;;;14.40;99.90;;;;;;4971821;28;20199;-83
2023/09/28 06:16:44;;;;;;;20.45;13.95;;;14.30;99.90;;;;;;4970701;28;20200;-84
2023/09/28 06:19:14;;;;;;;22.05;14.63;;;14.40;99.90;;;;;;4971791;28;20507;-83
2023/09/28 06:21:41;;;;;;;22.48;15.20;;;14.40;99.90;;;;;;4954570;28;22067;-84
2023/09/28 06:24:09;;;;;;;30.90;18.33;;;14.40;99.90;;;;;;4952256;28;20196;-84
2023/09/28 06:26:37;;;;;;;25.80;19.33;;;14.40;99.90;;;;;;4971415;28;20223;-84
2023/09/28 06:29:10;;;;;;;25.67;17.08;;;14.30;99.90;;;;;;4961262;28;20250;-83
2023/09/28 06:31:38;;;;;;;24.58;16.40;;;14.40;99.90;;;;;;4938004;28;20279;-84
2023/09/28 06:34:06;;;;;;;26.38;18.92;;;14.50;99.90;;;;;;4962187;28;20187;-84
2023/09/28 06:36:34;;;;;;;33.42;23.05;;;14.50;99.90;;;;;;4971475;28;20575;-84
2023/09/28 06:39:04;;;;;;;31.27;22.45;;;14.40;99.90;;;;;;4953884;28;20304;-84
2023/09/28 06:41:32;;;;;;;36.05;22.73;;;14.40;99.90;;;;;;4966881;28;20619;-83
2023/09/28 06:43:59;;;;;;;32.47;22.67;;;14.40;99.90;;;;;;4951083;28;20199;-83
2023/09/28 06:46:27;;;;;;;35.42;23.52;;;14.40;99.90;;;;;;4938373;28;20717;-84
2023/09/28 06:48:55;;;;;;;34.50;22.73;;;14.60;99.90;;;;;;4953879;28;20203;-84
2023/09/28 06:51:25;;;;;;;32.25;22.42;;;14.60;99.90;;;;;;4971521;28;20230;-83
2023/09/28 06:53:54;;;;;;;39.58;23.90;;;14.60;99.90;;;;;;4969816;28;20211;-83
2023/09/28 06:56:22;;;;;;;33.25;23.42;;;14.70;99.90;;;;;;4971066;28;20196;-84
2023/09/28 06:58:52;;;;;;;32.92;22.13;;;14.80;99.90;;;;;;4953828;28;20242;-83
2023/09/28 07:01:21;;;;;;;38.05;24.88;;;14.80;99.90;;;;;;4967239;28;20180;-84
2023/09/28 07:03:52;;;;;;;36.60;25.42;;;14.80;99.90;;;;;;4969645;28;20731;-84
2023/09/28 07:06:24;;;;;;;41.33;27.85;;;14.80;99.90;;;;;;4970756;28;20276;-83
2023/09/28 07:08:55;;;;;;;41.92;29.92;;;14.90;99.90;;;;;;4970894;28;20219;-84
2023/09/28 07:11:24;;;;;;;45.85;32.80;;;14.90;99.90;;;;;;4953706;28;20184;-85
2023/09/28 07:13:52;;;;;;;35.70;28.33;;;14.90;99.90;;;;;;4953617;28;20215;-84
2023/09/28 07:16:20;;;;;;;38.38;29.23;;;14.90;99.90;;;;;;4971182;28;20829;-85
2023/09/28 07:18:48;;;;;;;35.38;26.77;;;15.00;99.90;;;;;;4971152;28;20809;-84
2023/09/28 07:21:16;;;;;;;32.17;24.73;;;15.00;99.90;;;;;;4969819;28;20235;-83
2023/09/28 07:23:44;;;;;;;32.05;23.40;;;15.10;99.90;;;;;;4969375;28;20187;-83
2023/09/28 07:26:18;;;;;;;29.73;23.38;;;15.10;99.90;;;;;;4967379;28;20200;-84
2023/09/28 07:28:46;;;;;;;28.20;20.02;;;15.20;99.90;;;;;;4968785;28;20233;-83
2023/09/28 07:31:15;;;;;;;22.75;17.70;;;15.30;99.90;;;;;;4970254;28;20227;-83
2023/09/28 07:33:43;;;;;;;28.05;19.33;;;15.40;99.90;;;;;;4970387;28;20200;-82
2023/09/28 07:36:11;;;;;;;25.70;17.30;;;15.50;99.90;;;;;;4970361;28;20239;-84
2023/09/28 07:38:38;;;;;;;24.60;16.42;;;15.60;99.90;;;;;;4934661;28;20295;-85
2023/09/28 07:41:06;;;;;;;22.55;15.68;;;15.60;99.90;;;;;;4970238;28;20223;-84
2023/09/28 07:43:35;;;;;;;21.73;16.80;;;15.70;99.90;;;;;;4970104;28;20636;-85
2023/09/28 07:46:02;;;;;;;24.65;16.73;;;15.70;99.90;;;;;;4946800;28;20637;-83
2023/09/28 07:48:30;;;;;;;23.92;16.02;;;15.80;99.90;;;;;;4942355;28;20587;-84
2023/09/28 07:50:58;;;;;;;23.98;16.63;;;15.90;99.90;;;;;;4969409;28;20803;-85
2023/09/28 07:53:26;;;;;;;26.00;17.48;;;16.00;99.90;;;;;;4953020;28;20673;-85
2023/09/28 07:55:54;;;;;;;21.80;15.57;;;16.00;99.90;;;;;;4952658;28;20250;-85
2023/09/28 07:58:22;;;;;;;22.48;15.57;;;16.00;99.90;;;;;;4952891;28;20196;-83
2023/09/28 08:00:54;;;;;;;22.48;16.52;;;16.00;99.90;;;;;;4952391;28;20585;-85
2023/09/28 08:03:22;;;;;;;26.42;17.15;;;16.10;99.90;;;;;;4969714;28;20192;-83
2023/09/28 08:05:50;;;;;;;22.35;15.95;;;16.20;99.90;;;;;;4949929;28;20710;-85
2023/09/28 08:08:18;;;;;;;24.40;14.70;;;16.20;99.90;;;;;;4947179;28;20228;-83
2023/09/28 08:10:47;;;;;;;21.42;14.75;;;16.30;99.90;;;;;;4968359;28;20192;-84
2023/09/28 08:13:15;;;;;;;18.50;12.98;;;16.30;99.90;;;;;;4968548;28;20658;-85
2023/09/28 08:15:44;;;;;;;20.33;12.90;;;16.30;99.90;;;;;;4970057;28;20192;-85
2023/09/28 08:18:13;;;;;;;20.27;14.27;;;16.40;99.90;;;;;;4968775;28;20192;-85
2023/09/28 08:20:41;;;;;;;22.55;14.00;;;16.50;99.90;;;;;;4962712;28;20199;-85
2023/09/28 08:23:22;;;;;;;19.48;13.40;;;16.40;99.90;;;;;;4970914;28;20898;-85
2023/09/28 08:25:50;;;;;;;18.48;13.00;;;16.50;99.90;;;;;;4968641;28;20524;-83
2023/09/28 08:28:17;;;;;;;21.33;14.32;;;16.60;99.90;;;;;;4968315;28;20195;-85
2023/09/28 08:30:45;;;;;;;21.70;13.95;;;16.70;99.90;;;;;;4970242;28;20233;-84
2023/09/28 08:33:12;;;;;;;19.65;13.70;;;16.70;99.90;;;;;;4945054;29;20750;-86
2023/09/28 08:35:40;;;;;;;17.40;12.73;;;16.80;99.90;;;;;;4949644;28;20254;-86
2023/09/28 08:38:07;;;;;;;20.52;12.88;;;17.00;99.90;;;;;;4967417;28;20191;-85
2023/09/28 08:40:35;;;;;;;19.67;13.32;;;17.00;99.90;;;;;;4968686;28;20295;-86
2023/09/28 08:43:05;;;;;;;20.42;13.35;;;17.00;99.90;;;;;;4969893;28;20184;-85
2023/09/28 08:45:32;;;;;;;16.67;12.70;;;17.20;99.90;;;;;;4949309;29;20200;-85
2023/09/28 08:48:02;;;;;;;17.00;12.93;;;17.20;99.90;;;;;;4969625;28;20295;-86
2023/09/28 08:50:38;;;;;;;20.23;13.70;;;17.20;99.90;;;;;;4970203;28;20195;-85
2023/09/28 08:53:06;;;;;;;21.70;12.95;;;17.20;99.90;;;;;;4969620;28;20214;-85
2023/09/28 08:55:36;;;;;;;18.60;12.45;;;17.40;99.90;;;;;;4952192;28;20282;-84
2023/09/28 08:58:05;;;;;;;18.27;12.57;;;17.40;99.90;;;;;;4970010;28;20936;-86
2023/09/28 09:00:34;;;;;;;24.02;14.23;;;17.40;99.90;;;;;;4969524;28;20215;-85
2023/09/28 09:03:06;;;;;;;21.05;13.40;;;17.40;99.90;;;;;;4969877;28;20228;-86
2023/09/28 09:05:39;;;;;;;23.00;13.63;;;17.40;99.90;;;;;;4952111;28;20238;-84
2023/09/28 09:08:08;;;;;;;18.23;13.43;;;17.50;99.90;;;;;;4961341;28;20265;-85
2023/09/28 09:10:36;;;;;;;20.75;14.05;;;17.60;99.90;;;;;;4967058;28;20243;-86
2023/09/28 09:13:04;;;;;;;19.20;12.75;;;17.60;99.90;;;;;;4969890;28;20208;-84
2023/09/28 09:15:32;;;;;;;19.02;13.20;;;17.60;99.90;;;;;;4968829;28;20223;-85
2023/09/28 09:18:00;;;;;;;16.02;12.38;;;17.80;99.90;;;;;;4972132;28;20203;-85
2023/09/28 09:20:29;;;;;;;18.50;13.13;;;17.80;99.90;;;;;;4973261;28;20670;-85
2023/09/28 09:23:11;;;;;;;18.77;11.98;;;17.90;99.90;;;;;;4973294;28;20196;-84
2023/09/28 09:25:55;;;;;;;18.48;12.18;;;18.10;99.90;;;;;;4972091;28;20788;-84
2023/09/28 09:28:29;;;;;;;20.30;13.07;;;18.10;99.90;;;;;;4970079;28;20192;-82
2023/09/28 09:30:57;;;;;;;22.05;13.50;;;18.30;99.90;;;;;;4971165;28;20243;-86
2023/09/28 09:33:26;;;;;;;17.13;12.77;;;18.20;99.90;;;;;;4968363;28;20720;-85
2023/09/28 09:35:53;;;;;;;22.38;13.32;;;18.30;99.90;;;;;;4972551;28;20270;-85
2023/09/28 09:38:29;;;;;;;19.58;13.75;;;18.40;99.90;;;;;;4972790;28;20204;-84
2023/09/28 09:41:04;;;;;;;19.20;13.60;;;18.50;99.90;;;;;;4972326;28;20211;-85
2023/09/28 09:43:35;;;;;;;15.48;11.55;;;18.70;99.90;;;;;;4954374;28;20191;-86
2023/09/28 09:46:05;;;;;;;17.30;12.80;;;18.80;99.90;;;;;;4972641;28;20675;-86
2023/09/28 09:48:42;;;;;;;22.45;12.98;;;18.80;99.90;;;;;;4972918;28;20196;-86
2023/09/28 09:51:17;;;;;;;20.77;12.30;;;18.90;99.90;;;;;;4971813;28;20215;-86
2023/09/28 09:53:46;;;;;;;15.95;11.90;;;18.90;99.90;;;;;;4969798;28;20187;-87
2023/09/28 09:56:15;;;;;;;18.02;12.57;;;19.00;99.90;;;;;;4972661;28;20218;-86
2023/09/28 09:58:48;;;;;;;18.10;13.18;;;19.10;99.90;;;;;;4972831;28;20192;-87
2023/09/28 10:01:20;;;;;;;22.13;13.05;;;19.20;99.90;;;;;;4956427;28;20204;-86
2023/09/28 10:03:51;;;;;;;20.48;12.70;;;19.50;99.90;;;;;;4972844;28;20646;-87
2023/09/28 10:06:21;;;;;;;19.63;13.32;;;19.50;99.90;;;;;;4970949;28;20283;-85
2023/09/28 10:08:49;;;;;;;17.48;12.50;;;19.70;99.90;;;;;;4954434;28;20251;-86
2023/09/28 10:11:18;;;;;;;18.80;12.95;;;19.70;99.90;;;;;;4972395;28;20250;-87
2023/09/28 10:13:49;;;;;;;19.35;12.35;;;19.70;99.90;;;;;;4972328;28;20192;-88
2023/09/28 10:16:18;;;;;;;17.98;13.10;;;19.80;99.90;;;;;;4972474;28;20216;-86
2023/09/28 10:18:48;;;;;;;17.10;11.90;;;19.90;99.90;;;;;;4968566;28;20226;-87
2023/09/28 10:21:16;;;;;;;19.00;12.40;;;20.00;99.90;;;;;;4972560;28;20204;-86
2023/09/28 10:23:46;;;;;;;19.00;12.55;;;20.10;99.90;;;;;;4972001;28;20188;-87
2023/09/28 10:26:19;;;;;;;16.42;11.70;;;20.20;99.90;;;;;;4971913;28;20180;-86
2023/09/28 10:29:07;;;;;;;18.17;11.50;;;20.20;99.90;;;;;;4971757;28;20215;-88
2023/09/28 10:31:40;;;;;;;19.20;11.32;;;20.30;99.90;;;;;;4944906;28;20795;-88
2023/09/28 10:34:27;;;;;;;17.92;11.65;;;20.50;99.90;;;;;;4934017;29;20276;-88
2023/09/28 10:37:18;;;;;;;19.15;12.43;;;20.50;99.90;;;;;;4933415;29;20205;-87
2023/09/28 10:39:57;;;;;;;15.43;12.05;;;20.50;99.90;;;;;;4932026;29;20201;-87
2023/09/28 10:42:26;;;;;;;19.95;12.18;;;20.40;99.90;;;;;;4932248;29;20625;-87
2023/09/28 10:44:56;;;;;;;17.80;12.43;;;20.60;99.90;;;;;;4929640;29;20186;-87
2023/09/28 10:47:24;;;;;;;18.35;11.35;;;20.70;99.90;;;;;;4933731;29;20252;-88
2023/09/28 10:49:59;;;;;;;15.63;11.05;;;20.90;99.90;;;;;;4932229;29;20260;-86
2023/09/28 10:52:28;;;;;;;16.23;10.25;;;20.90;99.90;;;;;;4932277;29;20184;-86
2023/09/28 10:54:56;;;;;;;18.02;12.00;;;21.00;99.90;;;;;;4931843;29;20272;-87
2023/09/28 10:57:31;;;;;;;16.50;11.35;;;21.00;99.90;;;;;;4931817;29;20197;-87
2023/09/28 11:00:02;;;;;;;15.70;11.57;;;21.00;99.90;;;;;;4931611;29;20217;-86
2023/09/28 11:02:36;;;;;;;21.30;12.15;;;21.20;99.90;;;;;;4929920;29;20182;-87
2023/09/28 11:05:07;;;;;;;17.67;11.63;;;21.20;99.90;;;;;;4933056;29;20283;-87
2023/09/28 11:07:35;;;;;;;16.42;11.15;;;21.40;99.90;;;;;;4926847;29;20197;-87
2023/09/28 11:10:04;;;;;;;18.00;12.05;;;21.60;99.90;;;;;;4932952;29;20192;-88
2023/09/28 11:12:32;;;;;;;22.00;12.18;;;21.50;99.90;;;;;;4932563;29;20208;-87
2023/09/28 11:15:01;;;;;;;21.90;11.75;;;21.40;99.90;;;;;;4933253;29;20221;-89
2023/09/28 11:17:29;;;;;;;21.50;12.23;;;21.60;99.90;;;;;;4932998;29;20193;-87
2023/09/28 11:19:57;;;;;;;17.70;12.18;;;21.50;99.90;;;;;;4933358;29;20249;-86
2023/09/28 11:22:28;;;;;;;19.52;12.45;;;21.60;99.90;;;;;;4932801;29;20197;-86
2023/09/28 11:24:57;;;;;;;23.45;13.23;;;21.60;99.90;;;;;;4929542;29;20208;-87
2023/09/28 11:27:26;;;;;;;20.15;12.65;;;21.70;99.90;;;;;;4931978;29;20189;-87
2023/09/28 11:29:57;;;;;;;17.95;12.23;;;21.60;99.90;;;;;;4938126;28;20299;-88
2023/09/28 11:32:24;;;;;;;19.63;13.60;;;21.60;99.90;;;;;;4953675;28;20978;-88
2023/09/28 11:34:55;;;;;;;22.27;13.45;;;21.60;99.90;;;;;;4971021;28;20246;-89
2023/09/28 11:37:23;;;;;;;21.65;13.88;;;21.70;99.90;;;;;;4952467;28;20203;-88
2023/09/28 11:39:51;;;;;;;18.40;12.70;;;21.70;99.90;;;;;;4970554;28;20738;-89
2023/09/28 11:42:21;;;;;;;26.55;13.63;;;22.00;99.90;;;;;;4954169;28;20983;-88
2023/09/28 11:44:50;;;;;;;21.23;12.73;;;22.20;99.90;;;;;;4953621;28;20250;-87
2023/09/28 11:47:21;;;;;;;17.88;12.43;;;22.30;99.90;;;;;;4950599;29;20228;-88
2023/09/28 11:49:50;;;;;;;25.13;14.32;;;22.30;99.90;;;;;;4970171;28;20246;-87
2023/09/28 11:52:18;;;;;;;23.88;13.52;;;22.50;99.90;;;;;;4970556;28;20662;-87
2023/09/28 11:54:47;;;;;;;20.58;13.20;;;22.40;99.90;;;;;;4971017;28;20586;-87
2023/09/28 11:57:18;;;;;;;17.95;12.18;;;22.50;99.90;;;;;;4953990;28;20184;-86
2023/09/28 11:59:46;;;;;;;19.77;12.63;;;22.60;99.90;;;;;;4953540;28;20566;-87
2023/09/28 12:02:13;;;;;;;20.98;12.70;;;22.80;99.90;;;;;;4969033;28;20479;-88
2023/09/28 12:04:41;;;;;;;17.55;12.23;;;22.70;99.90;;;;;;4970382;28;20192;-89
2023/09/28 12:07:09;;;;;;;21.02;12.63;;;22.80;99.90;;;;;;4968992;28;20199;-88
2023/09/28 12:09:37;;;;;;;17.85;12.18;;;22.90;99.90;;;;;;4970416;28;20195;-88
2023/09/28 12:12:20;;;;;;;20.77;12.25;;;23.10;99.90;;;;;;4970737;28;20270;-86
2023/09/28 12:14:48;;;;;;;16.40;11.85;;;23.10;99.90;;;;;;4952812;28;20274;-86
2023/09/28 12:17:15;;;;;;;18.25;11.05;;;23.10;99.90;;;;;;4965646;28;20196;-86
2023/09/28 12:19:43;;;;;;;19.55;12.55;;;23.20;99.90;;;;;;4970440;28;20211;-89
2023/09/28 12:22:11;;;;;;;23.40;11.07;;;23.20;99.90;;;;;;4952840;28;20227;-89
2023/09/28 12:24:38;;;;;;;16.23;11.00;;;23.20;99.90;;;;;;4970157;28;20195;-88
2023/09/28 12:27:06;;;;;;;19.00;12.05;;;23.30;99.90;;;;;;4970223;28;20721;-88
2023/09/28 12:29:35;;;;;;;15.77;12.23;;;23.30;99.90;;;;;;4969905;28;20206;-87
2023/09/28 12:32:03;;;;;;;22.02;12.43;;;23.30;99.90;;;;;;4952882;28;20231;-88
2023/09/28 12:34:32;;;;;;;17.38;11.40;;;23.40;99.90;;;;;;4969609;28;20195;-88
2023/09/28 12:36:59;;;;;;;21.52;11.93;;;23.30;99.90;;;;;;4970070;28;20187;-88
2023/09/28 12:39:27;;;;;;;21.75;11.15;;;23.30;99.90;;;;;;4970248;28;20199;-88
2023/09/28 12:41:58;;;;;;;16.55;11.75;;;23.20;99.90;;;;;;4968388;28;20685;-88
2023/09/28 12:44:26;;;;;;;15.82;10.65;;;23.20;99.90;;;;;;4970487;28;20219;-87